sensor_id;sensor_type;location;lat;lon;timestamp;pressure;altitude;pressure_sealevel;temperature;humidity
23303;BME280;11820;48.738;9.092;2023-05-29T00:01:20;96324.31;;;16.49;100.00
23303;BME280;11820;48.738;9.092;2023-05-29T00:03:46;96324.88;;;16.51;100.00
23303;BME280;11820;48.738;9.092;2023-05-29T00:06:11;96330.31;;;16.38;100.00
23303;BME280;11820;48.738;9.092;2023-05-29T00:08:37;96323.28;;;16.50;100.00
23303;BME280;11820;48.738;9.092;2023-05-29T00:11:03;96322.00;;;16.30;100.00
23303;BME280;11820;48.738;9.092;2023-05-29T00:13:28;96320.13;;;16.48;100.00
23303;BME280;11820;48.738;9.092;2023-05-29T00:15:53;96315.22;;;16.40;100.00
23303;BME280;11820;48.738;9.092;2023-05-29T00:18:18;96322.16;;;16.46;100.00
23303;BME280;11820;48.738;9.092;2023-05-29T00:20:44;96329.88;;;16.41;100.00
23303;BME280;11820;48.738;9.092;2023-05-29T00:23:09;96325.84;;;15.93;100.00
23303;BME280;11820;48.738;9.092;2023-05-29T00:25:35;96319.81;;;15.93;100.00
23303;BME280;11820;48.738;9.092;2023-05-29T00:28:00;96318.78;;;15.82;100.00
23303;BME280;11820;48.738;9.092;2023-05-29T00:30:26;96314.31;;;15.60;100.00
23303;BME280;11820;48.738;9.092;2023-05-29T00:32:51;96304.75;;;15.95;100.00
23303;BME280;11820;48.738;9.092;2023-05-29T00:35:20;96306.53;;;15.71;100.00
23303;BME280;11820;48.738;9.092;2023-05-29T00:37:45;96296.50;;;16.09;100.00
23303;BME280;11820;48.738;9.092;2023-05-29T00:40:11;96301.72;;;16.09;100.00
23303;BME280;11820;48.738;9.092;2023-05-29T00:42:36;96300.69;;;15.99;100.00
23303;BME280;11820;48.738;9.092;2023-05-29T00:45:02;96300.56;;;16.17;100.00
23303;BME280;11820;48.738;9.092;2023-05-29T00:47:28;96307.78;;;15.80;100.00
23303;BME280;11820;48.738;9.092;2023-05-29T00:49:53;96298.19;;;16.04;100.00
23303;BME280;11820;48.738;9.092;2023-05-29T00:52:20;96294.19;;;15.90;100.00
23303;BME280;11820;48.738;9.092;2023-05-29T00:54:46;96301.13;;;15.84;100.00
23303;BME280;11820;48.738;9.092;2023-05-29T00:57:12;96295.66;;;15.74;100.00
23303;BME280;11820;48.738;9.092;2023-05-29T00:59:39;96293.97;;;15.80;100.00
23303;BME280;11820;48.738;9.092;2023-05-29T01:02:06;96300.69;;;15.46;100.00
23303;BME280;11820;48.738;9.092;2023-05-29T01:04:31;96301.66;;;15.63;100.00
23303;BME280;11820;48.738;9.092;2023-05-29T01:07:01;96299.38;;;15.67;100.00
23303;BME280;11820;48.738;9.092;2023-05-29T01:09:28;96298.53;;;15.43;100.00
23303;BME280;11820;48.738;9.092;2023-05-29T01:14:41;96299.75;;;15.41;100.00
23303;BME280;11820;48.738;9.092;2023-05-29T01:18:05;96296.31;;;15.29;100.00
23303;BME280;11820;48.738;9.092;2023-05-29T01:26:41;96295.72;;;15.27;100.00
23303;BME280;11820;48.738;9.092;2023-05-29T01:28:47;96296.31;;;15.58;100.00
23303;BME280;11820;48.738;9.092;2023-05-29T01:31:17;96286.41;;;15.49;100.00
23303;BME280;11820;48.738;9.092;2023-05-29T01:33:52;96286.16;;;15.39;100.00
23303;BME280;11820;48.738;9.092;2023-05-29T01:36:17;96294.66;;;15.34;100.00
23303;BME280;11820;48.738;9.092;2023-05-29T01:38:42;96281.25;;;15.31;100.00
23303;BME280;11820;48.738;9.092;2023-05-29T01:41:08;96282.75;;;15.38;100.00
23303;BME280;11820;48.738;9.092;2023-05-29T01:43:34;96290.09;;;15.12;100.00
23303;BME280;11820;48.738;9.092;2023-05-29T01:45:59;96291.59;;;15.37;100.00
23303;BME280;11820;48.738;9.092;2023-05-29T01:48:25;96294.94;;;14.79;100.00
23303;BME280;11820;48.738;9.092;2023-05-29T01:50:51;96301.28;;;15.01;100.00
23303;BME280;11820;48.738;9.092;2023-05-29T01:53:16;96289.56;;;15.21;100.00
23303;BME280;11820;48.738;9.092;2023-05-29T01:55:42;96299.91;;;15.28;100.00
23303;BME280;11820;48.738;9.092;2023-05-29T01:58:07;96303.84;;;15.19;100.00
23303;BME280;11820;48.738;9.092;2023-05-29T02:00:34;96304.75;;;15.24;100.00
23303;BME280;11820;48.738;9.092;2023-05-29T02:03:00;96304.13;;;15.11;100.00
23303;BME280;11820;48.738;9.092;2023-05-29T02:05:25;96309.00;;;15.07;100.00
23303;BME280;11820;48.738;9.092;2023-05-29T02:07:51;96308.28;;;15.00;100.00
23303;BME280;11820;48.738;9.092;2023-05-29T02:10:16;96306.19;;;14.91;100.00
23303;BME280;11820;48.738;9.092;2023-05-29T02:12:41;96304.47;;;14.85;100.00
23303;BME280;11820;48.738;9.092;2023-05-29T02:15:07;96300.84;;;14.86;100.00
23303;BME280;11820;48.738;9.092;2023-05-29T02:17:32;96297.97;;;14.58;100.00
23303;BME280;11820;48.738;9.092;2023-05-29T02:19:58;96298.91;;;14.81;100.00
23303;BME280;11820;48.738;9.092;2023-05-29T02:22:24;96293.03;;;15.04;100.00
23303;BME280;11820;48.738;9.092;2023-05-29T02:24:49;96284.97;;;14.76;100.00
23303;BME280;11820;48.738;9.092;2023-05-29T02:27:14;96287.69;;;14.81;100.00
23303;BME280;11820;48.738;9.092;2023-05-29T02:29:40;96283.94;;;14.95;100.00
23303;BME280;11820;48.738;9.092;2023-05-29T02:32:05;96277.72;;;14.78;100.00
23303;BME280;11820;48.738;9.092;2023-05-29T02:34:30;96289.22;;;14.88;100.00
23303;BME280;11820;48.738;9.092;2023-05-29T02:36:55;96291.13;;;14.93;100.00
23303;BME280;11820;48.738;9.092;2023-05-29T02:39:21;96294.13;;;14.78;100.00
23303;BME280;11820;48.738;9.092;2023-05-29T02:41:47;96297.09;;;14.82;100.00
23303;BME280;11820;48.738;9.092;2023-05-29T02:44:12;96295.16;;;14.60;100.00
23303;BME280;11820;48.738;9.092;2023-05-29T02:46:37;96296.53;;;14.62;100.00
23303;BME280;11820;48.738;9.092;2023-05-29T02:49:03;96289.94;;;14.42;100.00
23303;BME280;11820;48.738;9.092;2023-05-29T02:51:28;96293.03;;;14.32;100.00
23303;BME280;11820;48.738;9.092;2023-05-29T02:53:54;96287.19;;;14.55;100.00
23303;BME280;11820;48.738;9.092;2023-05-29T02:56:19;96286.28;;;14.49;100.00
23303;BME280;11820;48.738;9.092;2023-05-29T02:58:51;96289.66;;;14.50;100.00
23303;BME280;11820;48.738;9.092;2023-05-29T03:01:17;96285.41;;;14.55;100.00
23303;BME280;11820;48.738;9.092;2023-05-29T03:03:43;96278.81;;;14.53;100.00
23303;BME280;11820;48.738;9.092;2023-05-29T03:06:09;96274.69;;;14.63;100.00
23303;BME280;11820;48.738;9.092;2023-05-29T03:08:35;96277.00;;;14.71;100.00
23303;BME280;11820;48.738;9.092;2023-05-29T03:11:05;96275.25;;;14.65;100.00
23303;BME280;11820;48.738;9.092;2023-05-29T03:13:30;96278.44;;;14.85;100.00
23303;BME280;11820;48.738;9.092;2023-05-29T03:15:55;96270.28;;;14.81;100.00
23303;BME280;11820;48.738;9.092;2023-05-29T03:18:22;96284.25;;;14.69;100.00
23303;BME280;11820;48.738;9.092;2023-05-29T03:20:47;96278.00;;;14.16;100.00
23303;BME280;11820;48.738;9.092;2023-05-29T03:23:13;96272.31;;;14.01;100.00
23303;BME280;11820;48.738;9.092;2023-05-29T03:25:38;96279.19;;;14.14;100.00
23303;BME280;11820;48.738;9.092;2023-05-29T03:28:03;96278.66;;;14.05;100.00
23303;BME280;11820;48.738;9.092;2023-05-29T03:30:29;96275.47;;;14.28;100.00
23303;BME280;11820;48.738;9.092;2023-05-29T03:32:54;96281.06;;;14.31;100.00
23303;BME280;11820;48.738;9.092;2023-05-29T03:35:19;96277.94;;;14.23;100.00
23303;BME280;11820;48.738;9.092;2023-05-29T03:37:45;96287.91;;;14.26;100.00
23303;BME280;11820;48.738;9.092;2023-05-29T03:40:10;96283.81;;;13.87;100.00
23303;BME280;11820;48.738;9.092;2023-05-29T03:42:36;96283.09;;;13.56;100.00
23303;BME280;11820;48.738;9.092;2023-05-29T03:45:01;96288.53;;;13.48;100.00
23303;BME280;11820;48.738;9.092;2023-05-29T03:47:27;96285.50;;;13.82;100.00
23303;BME280;11820;48.738;9.092;2023-05-29T03:49:52;96279.38;;;13.94;100.00
23303;BME280;11820;48.738;9.092;2023-05-29T03:52:17;96282.66;;;14.08;100.00
23303;BME280;11820;48.738;9.092;2023-05-29T03:54:42;96276.72;;;14.25;100.00
23303;BME280;11820;48.738;9.092;2023-05-29T03:57:10;96283.78;;;13.94;100.00
23303;BME280;11820;48.738;9.092;2023-05-29T03:59:35;96283.94;;;13.74;100.00
23303;BME280;11820;48.738;9.092;2023-05-29T04:02:00;96285.47;;;14.06;100.00
23303;BME280;11820;48.738;9.092;2023-05-29T04:04:26;96285.69;;;14.05;100.00
23303;BME280;11820;48.738;9.092;2023-05-29T04:06:52;96288.19;;;13.93;100.00
23303;BME280;11820;48.738;9.092;2023-05-29T04:09:17;96295.22;;;14.11;100.00
23303;BME280;11820;48.738;9.092;2023-05-29T04:11:43;96290.69;;;13.82;100.00
23303;BME280;11820;48.738;9.092;2023-05-29T04:14:09;96313.63;;;14.09;100.00
23303;BME280;11820;48.738;9.092;2023-05-29T04:16:35;96309.72;;;14.00;100.00
23303;BME280;11820;48.738;9.092;2023-05-29T04:19:00;96312.75;;;13.97;100.00
23303;BME280;11820;48.738;9.092;2023-05-29T04:21:25;96315.50;;;14.02;100.00
23303;BME280;11820;48.738;9.092;2023-05-29T04:23:52;96312.81;;;14.15;100.00
23303;BME280;11820;48.738;9.092;2023-05-29T04:26:17;96316.38;;;14.21;100.00
23303;BME280;11820;48.738;9.092;2023-05-29T04:28:43;96313.28;;;14.30;100.00
23303;BME280;11820;48.738;9.092;2023-05-29T04:31:08;96318.84;;;14.52;100.00
23303;BME280;11820;48.738;9.092;2023-05-29T04:33:39;96330.06;;;14.52;100.00
23303;BME280;11820;48.738;9.092;2023-05-29T04:36:05;96333.13;;;14.49;100.00
23303;BME280;11820;48.738;9.092;2023-05-29T04:38:30;96336.63;;;14.37;100.00
23303;BME280;11820;48.738;9.092;2023-05-29T04:40:56;96332.81;;;14.15;100.00
23303;BME280;11820;48.738;9.092;2023-05-29T04:43:25;96337.22;;;14.39;100.00
23303;BME280;11820;48.738;9.092;2023-05-29T04:45:53;96335.56;;;14.62;100.00
23303;BME280;11820;48.738;9.092;2023-05-29T04:48:18;96340.47;;;14.52;100.00
23303;BME280;11820;48.738;9.092;2023-05-29T04:50:44;96341.03;;;14.36;100.00
23303;BME280;11820;48.738;9.092;2023-05-29T04:53:09;96343.88;;;14.53;100.00
23303;BME280;11820;48.738;9.092;2023-05-29T04:55:35;96343.16;;;14.63;100.00
23303;BME280;11820;48.738;9.092;2023-05-29T04:58:01;96341.44;;;14.75;100.00
23303;BME280;11820;48.738;9.092;2023-05-29T05:00:26;96342.22;;;14.76;100.00
23303;BME280;11820;48.738;9.092;2023-05-29T05:02:52;96346.94;;;14.85;100.00
23303;BME280;11820;48.738;9.092;2023-05-29T05:05:17;96352.22;;;14.97;100.00
23303;BME280;11820;48.738;9.092;2023-05-29T05:07:42;96355.09;;;15.07;100.00
23303;BME280;11820;48.738;9.092;2023-05-29T05:10:08;96351.47;;;14.90;100.00
23303;BME280;11820;48.738;9.092;2023-05-29T05:12:33;96356.69;;;15.08;100.00
23303;BME280;11820;48.738;9.092;2023-05-29T05:14:59;96351.72;;;15.18;100.00
23303;BME280;11820;48.738;9.092;2023-05-29T05:17:24;96354.22;;;15.13;100.00
23303;BME280;11820;48.738;9.092;2023-05-29T05:19:49;96352.91;;;15.22;100.00
23303;BME280;11820;48.738;9.092;2023-05-29T05:22:17;96349.94;;;15.36;100.00
23303;BME280;11820;48.738;9.092;2023-05-29T05:24:42;96356.38;;;15.34;100.00
23303;BME280;11820;48.738;9.092;2023-05-29T05:27:07;96355.38;;;15.35;100.00
23303;BME280;11820;48.738;9.092;2023-05-29T05:29:33;96356.91;;;15.54;100.00
23303;BME280;11820;48.738;9.092;2023-05-29T05:31:58;96351.88;;;15.70;100.00
23303;BME280;11820;48.738;9.092;2023-05-29T05:34:23;96351.53;;;15.78;100.00
23303;BME280;11820;48.738;9.092;2023-05-29T05:36:49;96348.75;;;15.91;100.00
23303;BME280;11820;48.738;9.092;2023-05-29T05:39:15;96355.75;;;15.91;100.00
23303;BME280;11820;48.738;9.092;2023-05-29T05:41:40;96361.91;;;15.96;100.00
23303;BME280;11820;48.738;9.092;2023-05-29T05:44:05;96354.44;;;16.00;100.00
23303;BME280;11820;48.738;9.092;2023-05-29T05:46:31;96359.56;;;16.18;100.00
23303;BME280;11820;48.738;9.092;2023-05-29T05:48:56;96366.59;;;16.17;100.00
23303;BME280;11820;48.738;9.092;2023-05-29T05:51:23;96358.31;;;16.31;100.00
23303;BME280;11820;48.738;9.092;2023-05-29T05:53:48;96363.47;;;16.38;100.00
23303;BME280;11820;48.738;9.092;2023-05-29T05:56:13;96363.94;;;16.46;100.00
23303;BME280;11820;48.738;9.092;2023-05-29T05:58:39;96365.19;;;16.55;100.00
23303;BME280;11820;48.738;9.092;2023-05-29T06:01:04;96372.09;;;16.61;100.00
23303;BME280;11820;48.738;9.092;2023-05-29T06:03:29;96373.78;;;16.67;100.00
23303;BME280;11820;48.738;9.092;2023-05-29T06:05:58;96381.03;;;16.77;100.00
23303;BME280;11820;48.738;9.092;2023-05-29T06:08:23;96377.75;;;16.81;100.00
23303;BME280;11820;48.738;9.092;2023-05-29T06:10:48;96382.63;;;16.89;100.00
23303;BME280;11820;48.738;9.092;2023-05-29T06:13:14;96379.44;;;16.99;100.00
23303;BME280;11820;48.738;9.092;2023-05-29T06:15:39;96386.94;;;16.95;100.00
23303;BME280;11820;48.738;9.092;2023-05-29T06:18:05;96380.34;;;17.04;100.00
23303;BME280;11820;48.738;9.092;2023-05-29T06:20:30;96390.69;;;16.99;100.00
23303;BME280;11820;48.738;9.092;2023-05-29T06:22:56;96388.84;;;17.11;100.00
23303;BME280;11820;48.738;9.092;2023-05-29T06:25:21;96383.81;;;17.21;100.00
23303;BME280;11820;48.738;9.092;2023-05-29T06:27:46;96383.16;;;17.14;100.00
23303;BME280;11820;48.738;9.092;2023-05-29T06:30:12;96390.31;;;17.19;100.00
23303;BME280;11820;48.738;9.092;2023-05-29T06:32:38;96384.03;;;17.31;100.00
23303;BME280;11820;48.738;9.092;2023-05-29T06:35:04;96398.13;;;17.30;100.00
23303;BME280;11820;48.738;9.092;2023-05-29T06:37:31;96402.06;;;17.33;100.00
23303;BME280;11820;48.738;9.092;2023-05-29T06:39:56;96407.91;;;17.35;100.00
23303;BME280;11820;48.738;9.092;2023-05-29T06:42:22;96405.16;;;17.41;100.00
23303;BME280;11820;48.738;9.092;2023-05-29T06:44:47;96410.72;;;17.45;100.00
23303;BME280;11820;48.738;9.092;2023-05-29T06:47:12;96406.97;;;17.52;100.00
23303;BME280;11820;48.738;9.092;2023-05-29T06:49:37;96412.66;;;17.49;100.00
23303;BME280;11820;48.738;9.092;2023-05-29T06:52:03;96414.25;;;17.50;100.00
23303;BME280;11820;48.738;9.092;2023-05-29T06:54:28;96408.38;;;17.60;100.00
23303;BME280;11820;48.738;9.092;2023-05-29T06:56:53;96409.97;;;17.61;100.00
23303;BME280;11820;48.738;9.092;2023-05-29T06:59:20;96408.72;;;17.63;100.00
23303;BME280;11820;48.738;9.092;2023-05-29T07:01:45;96412.25;;;17.69;100.00
23303;BME280;11820;48.738;9.092;2023-05-29T07:04:11;96422.56;;;17.75;100.00
23303;BME280;11820;48.738;9.092;2023-05-29T07:06:36;96419.47;;;17.78;100.00
23303;BME280;11820;48.738;9.092;2023-05-29T07:09:02;96422.28;;;17.88;100.00
23303;BME280;11820;48.738;9.092;2023-05-29T07:11:27;96422.78;;;18.01;100.00
23303;BME280;11820;48.738;9.092;2023-05-29T07:13:53;96433.81;;;18.03;100.00
23303;BME280;11820;48.738;9.092;2023-05-29T07:16:19;96438.34;;;18.08;100.00
23303;BME280;11820;48.738;9.092;2023-05-29T07:18:44;96428.84;;;18.18;100.00
23303;BME280;11820;48.738;9.092;2023-05-29T07:21:10;96432.47;;;18.29;100.00
23303;BME280;11820;48.738;9.092;2023-05-29T07:23:35;96423.47;;;18.25;100.00
23303;BME280;11820;48.738;9.092;2023-05-29T07:26:01;96428.97;;;18.12;100.00
23303;BME280;11820;48.738;9.092;2023-05-29T07:28:26;96432.47;;;18.29;100.00
23303;BME280;11820;48.738;9.092;2023-05-29T07:30:51;96434.53;;;18.43;100.00
23303;BME280;11820;48.738;9.092;2023-05-29T07:33:16;96429.91;;;18.34;100.00
23303;BME280;11820;48.738;9.092;2023-05-29T07:35:42;96436.25;;;18.38;100.00
23303;BME280;11820;48.738;9.092;2023-05-29T07:38:07;96432.59;;;18.39;100.00
23303;BME280;11820;48.738;9.092;2023-05-29T07:40:33;96433.78;;;18.48;100.00
23303;BME280;11820;48.738;9.092;2023-05-29T07:42:58;96437.63;;;18.57;100.00
23303;BME280;11820;48.738;9.092;2023-05-29T07:45:23;96442.59;;;18.75;100.00
23303;BME280;11820;48.738;9.092;2023-05-29T07:47:48;96440.56;;;18.77;100.00
23303;BME280;11820;48.738;9.092;2023-05-29T07:50:15;96430.53;;;18.90;100.00
23303;BME280;11820;48.738;9.092;2023-05-29T07:52:42;96435.94;;;18.84;100.00
23303;BME280;11820;48.738;9.092;2023-05-29T07:55:08;96434.81;;;18.96;100.00
23303;BME280;11820;48.738;9.092;2023-05-29T07:57:33;96440.22;;;18.90;100.00
23303;BME280;11820;48.738;9.092;2023-05-29T07:59:58;96444.28;;;18.81;100.00
23303;BME280;11820;48.738;9.092;2023-05-29T08:02:24;96443.94;;;18.94;100.00
23303;BME280;11820;48.738;9.092;2023-05-29T08:04:49;96435.38;;;18.82;100.00
23303;BME280;11820;48.738;9.092;2023-05-29T08:07:15;96440.91;;;19.02;100.00
23303;BME280;11820;48.738;9.092;2023-05-29T08:09:40;96439.47;;;19.11;100.00
23303;BME280;11820;48.738;9.092;2023-05-29T08:12:06;96442.19;;;19.16;100.00
23303;BME280;11820;48.738;9.092;2023-05-29T08:14:31;96438.03;;;19.20;100.00
23303;BME280;11820;48.738;9.092;2023-05-29T08:16:57;96444.09;;;19.20;100.00
23303;BME280;11820;48.738;9.092;2023-05-29T08:19:23;96441.19;;;19.22;100.00
23303;BME280;11820;48.738;9.092;2023-05-29T08:21:48;96446.28;;;19.28;100.00
23303;BME280;11820;48.738;9.092;2023-05-29T08:24:13;96440.38;;;19.38;100.00
23303;BME280;11820;48.738;9.092;2023-05-29T08:26:39;96437.03;;;19.42;100.00
23303;BME280;11820;48.738;9.092;2023-05-29T08:29:04;96442.56;;;19.46;100.00
23303;BME280;11820;48.738;9.092;2023-05-29T08:31:30;96441.78;;;19.45;100.00
23303;BME280;11820;48.738;9.092;2023-05-29T08:33:56;96435.72;;;19.45;100.00
23303;BME280;11820;48.738;9.092;2023-05-29T08:36:21;96432.81;;;19.63;100.00
23303;BME280;11820;48.738;9.092;2023-05-29T08:38:48;96439.19;;;19.71;100.00
23303;BME280;11820;48.738;9.092;2023-05-29T08:41:19;96441.28;;;19.69;100.00
23303;BME280;11820;48.738;9.092;2023-05-29T08:43:47;96442.72;;;19.82;100.00
23303;BME280;11820;48.738;9.092;2023-05-29T08:46:13;96437.28;;;19.88;100.00
23303;BME280;11820;48.738;9.092;2023-05-29T08:48:43;96435.16;;;19.85;100.00
23303;BME280;11820;48.738;9.092;2023-05-29T08:51:10;96441.56;;;19.94;100.00
23303;BME280;11820;48.738;9.092;2023-05-29T08:53:36;96435.81;;;19.97;99.73
23303;BME280;11820;48.738;9.092;2023-05-29T08:56:02;96440.91;;;20.04;98.18
23303;BME280;11820;48.738;9.092;2023-05-29T08:58:28;96442.88;;;20.18;100.00
23303;BME280;11820;48.738;9.092;2023-05-29T09:00:53;96441.59;;;20.21;98.73
23303;BME280;11820;48.738;9.092;2023-05-29T09:03:20;96449.81;;;20.29;98.59
23303;BME280;11820;48.738;9.092;2023-05-29T09:05:47;96445.72;;;20.43;98.10
23303;BME280;11820;48.738;9.092;2023-05-29T09:08:14;96450.91;;;20.33;100.00
23303;BME280;11820;48.738;9.092;2023-05-29T09:10:44;96449.34;;;20.37;98.39
23303;BME280;11820;48.738;9.092;2023-05-29T09:13:10;96447.66;;;20.26;96.75
23303;BME280;11820;48.738;9.092;2023-05-29T09:15:36;96446.69;;;20.32;97.82
23303;BME280;11820;48.738;9.092;2023-05-29T09:18:04;96441.84;;;20.51;99.51
23303;BME280;11820;48.738;9.092;2023-05-29T09:20:29;96444.91;;;20.74;99.66
23303;BME280;11820;48.738;9.092;2023-05-29T09:23:06;96453.41;;;20.81;96.28
23303;BME280;11820;48.738;9.092;2023-05-29T09:25:34;96451.41;;;20.93;97.09
23303;BME280;11820;48.738;9.092;2023-05-29T09:28:04;96449.28;;;20.90;94.92
23303;BME280;11820;48.738;9.092;2023-05-29T09:30:42;96450.97;;;21.06;93.09
23303;BME280;11820;48.738;9.092;2023-05-29T09:33:10;96450.47;;;21.09;95.10
23303;BME280;11820;48.738;9.092;2023-05-29T09:35:40;96458.16;;;21.21;93.83
23303;BME280;11820;48.738;9.092;2023-05-29T09:38:07;96446.78;;;21.10;92.12
23303;BME280;11820;48.738;9.092;2023-05-29T09:40:35;96462.91;;;21.24;91.41
23303;BME280;11820;48.738;9.092;2023-05-29T09:43:02;96453.44;;;21.23;90.22
23303;BME280;11820;48.738;9.092;2023-05-29T09:45:30;96456.91;;;21.33;91.30
23303;BME280;11820;48.738;9.092;2023-05-29T09:47:55;96463.69;;;21.24;84.49
23303;BME280;11820;48.738;9.092;2023-05-29T09:50:25;96456.72;;;21.49;89.16
23303;BME280;11820;48.738;9.092;2023-05-29T09:52:57;96462.34;;;21.63;88.81
23303;BME280;11820;48.738;9.092;2023-05-29T09:55:24;96456.03;;;21.64;88.21
23303;BME280;11820;48.738;9.092;2023-05-29T09:57:53;96461.09;;;21.75;86.92
23303;BME280;11820;48.738;9.092;2023-05-29T10:00:18;96458.75;;;21.89;88.12
23303;BME280;11820;48.738;9.092;2023-05-29T10:02:44;96459.75;;;21.73;87.38
23303;BME280;11820;48.738;9.092;2023-05-29T10:05:10;96451.91;;;21.83;90.15
23303;BME280;11820;48.738;9.092;2023-05-29T10:07:37;96443.25;;;22.17;96.83
23303;BME280;11820;48.738;9.092;2023-05-29T10:10:07;96443.81;;;22.34;95.61
23303;BME280;11820;48.738;9.092;2023-05-29T10:12:44;96438.78;;;22.33;90.31
23303;BME280;11820;48.738;9.092;2023-05-29T10:15:13;96444.13;;;22.38;89.39
23303;BME280;11820;48.738;9.092;2023-05-29T10:17:48;96444.13;;;22.38;86.24
23303;BME280;11820;48.738;9.092;2023-05-29T10:20:16;96442.50;;;22.27;86.67
23303;BME280;11820;48.738;9.092;2023-05-29T10:22:45;96445.72;;;22.44;87.72
23303;BME280;11820;48.738;9.092;2023-05-29T10:25:13;96440.97;;;22.66;93.45
23303;BME280;11820;48.738;9.092;2023-05-29T10:27:38;96434.66;;;22.62;91.64
23303;BME280;11820;48.738;9.092;2023-05-29T10:30:12;96430.41;;;22.71;89.19
23303;BME280;11820;48.738;9.092;2023-05-29T10:32:56;96417.72;;;22.83;88.36
23303;BME280;11820;48.738;9.092;2023-05-29T10:35:31;96421.44;;;22.87;84.68
23303;BME280;11820;48.738;9.092;2023-05-29T10:38:12;96426.72;;;22.87;89.69
23303;BME280;11820;48.738;9.092;2023-05-29T10:40:38;96429.34;;;22.97;87.03
23303;BME280;11820;48.738;9.092;2023-05-29T10:43:04;96420.34;;;22.98;82.10
23303;BME280;11820;48.738;9.092;2023-05-29T10:50:45;96418.78;;;23.17;77.51
23303;BME280;11820;48.738;9.092;2023-05-29T10:53:15;96421.63;;;23.30;74.89
23303;BME280;11820;48.738;9.092;2023-05-29T10:55:42;96421.13;;;23.23;74.49
23303;BME280;11820;48.738;9.092;2023-05-29T10:58:28;96421.34;;;23.36;73.56
23303;BME280;11820;48.738;9.092;2023-05-29T11:00:55;96413.41;;;23.41;73.87
23303;BME280;11820;48.738;9.092;2023-05-29T11:03:24;96410.16;;;23.64;73.52
23303;BME280;11820;48.738;9.092;2023-05-29T11:06:04;96414.41;;;23.50;74.34
23303;BME280;11820;48.738;9.092;2023-05-29T11:08:46;96412.00;;;23.64;73.38
23303;BME280;11820;48.738;9.092;2023-05-29T11:11:13;96410.91;;;23.65;70.91
23303;BME280;11820;48.738;9.092;2023-05-29T11:13:39;96396.44;;;23.52;70.32
23303;BME280;11820;48.738;9.092;2023-05-29T11:18:51;96412.50;;;23.66;71.73
23303;BME280;11820;48.738;9.092;2023-05-29T11:21:34;96417.13;;;23.94;71.41
23303;BME280;11820;48.738;9.092;2023-05-29T11:24:01;96415.34;;;23.89;68.74
23303;BME280;11820;48.738;9.092;2023-05-29T11:26:34;96408.91;;;24.00;67.72
23303;BME280;11820;48.738;9.092;2023-05-29T11:29:05;96412.38;;;24.01;68.19
23303;BME280;11820;48.738;9.092;2023-05-29T11:31:33;96410.97;;;24.13;68.50
23303;BME280;11820;48.738;9.092;2023-05-29T11:34:01;96414.03;;;24.25;66.06
23303;BME280;11820;48.738;9.092;2023-05-29T11:36:30;96402.59;;;24.35;66.87
23303;BME280;11820;48.738;9.092;2023-05-29T11:38:56;96409.56;;;24.26;66.28
23303;BME280;11820;48.738;9.092;2023-05-29T11:41:22;96399.66;;;24.41;66.68
23303;BME280;11820;48.738;9.092;2023-05-29T11:44:03;96407.94;;;24.30;65.64
23303;BME280;11820;48.738;9.092;2023-05-29T11:46:31;96410.97;;;24.13;67.51
23303;BME280;11820;48.738;9.092;2023-05-29T11:48:58;96404.03;;;24.22;64.63
23303;BME280;11820;48.738;9.092;2023-05-29T11:51:23;96414.59;;;24.22;63.66
23303;BME280;11820;48.738;9.092;2023-05-29T11:53:49;96417.84;;;24.14;62.25
23303;BME280;11820;48.738;9.092;2023-05-29T11:56:15;96405.25;;;23.96;61.56
23303;BME280;11820;48.738;9.092;2023-05-29T11:58:41;96398.47;;;24.19;63.31
23303;BME280;11820;48.738;9.092;2023-05-29T12:01:08;96401.81;;;24.34;62.11
23303;BME280;11820;48.738;9.092;2023-05-29T12:03:51;96418.50;;;24.68;62.40
23303;BME280;11820;48.738;9.092;2023-05-29T12:06:33;96397.41;;;24.63;60.02
23303;BME280;11820;48.738;9.092;2023-05-29T12:09:01;96400.03;;;24.63;59.50
23303;BME280;11820;48.738;9.092;2023-05-29T12:11:27;96395.97;;;24.71;61.48
23303;BME280;11820;48.738;9.092;2023-05-29T12:14:00;96405.84;;;24.60;59.47
23303;BME280;11820;48.738;9.092;2023-05-29T12:16:31;96394.19;;;24.66;56.92
23303;BME280;11820;48.738;9.092;2023-05-29T12:18:58;96394.00;;;24.58;57.41
23303;BME280;11820;48.738;9.092;2023-05-29T12:21:23;96400.72;;;24.74;57.36
23303;BME280;11820;48.738;9.092;2023-05-29T12:23:55;96403.09;;;24.75;54.62
23303;BME280;11820;48.738;9.092;2023-05-29T12:26:24;96407.38;;;24.71;56.39
23303;BME280;11820;48.738;9.092;2023-05-29T12:28:51;96404.94;;;25.03;57.32
23303;BME280;11820;48.738;9.092;2023-05-29T12:31:28;96405.94;;;25.07;56.22
23303;BME280;11820;48.738;9.092;2023-05-29T12:33:57;96400.75;;;24.97;55.00
23303;BME280;11820;48.738;9.092;2023-05-29T12:36:25;96407.06;;;25.01;54.15
23303;BME280;11820;48.738;9.092;2023-05-29T12:38:51;96393.66;;;25.21;56.19
23303;BME280;11820;48.738;9.092;2023-05-29T12:43:49;96402.50;;;25.35;54.82
23303;BME280;11820;48.738;9.092;2023-05-29T12:46:14;96400.00;;;25.43;53.19
23303;BME280;11820;48.738;9.092;2023-05-29T12:48:40;96410.72;;;25.57;54.45
23303;BME280;11820;48.738;9.092;2023-05-29T12:51:06;96407.22;;;25.38;52.39
23303;BME280;11820;48.738;9.092;2023-05-29T12:53:33;96406.09;;;25.44;53.92
23303;BME280;11820;48.738;9.092;2023-05-29T12:55:58;96410.28;;;25.50;51.97
23303;BME280;11820;48.738;9.092;2023-05-29T12:58:24;96418.59;;;25.62;52.24
23303;BME280;11820;48.738;9.092;2023-05-29T13:00:52;96411.53;;;25.76;51.00
23303;BME280;11820;48.738;9.092;2023-05-29T13:03:21;96407.69;;;25.45;49.28
23303;BME280;11820;48.738;9.092;2023-05-29T13:05:49;96408.56;;;25.59;49.00
23303;BME280;11820;48.738;9.092;2023-05-29T13:08:15;96403.84;;;25.56;48.84
23303;BME280;11820;48.738;9.092;2023-05-29T13:10:40;96405.84;;;25.64;49.99